sensor_id;sensor_type;location;lat;lon;timestamp;temperature;humidity
65044;DHT22;51617;48.158;16.464;2023-11-18T00:00:49;7.50;92.70
65044;DHT22;51617;48.158;16.464;2023-11-18T00:03:14;7.40;92.80
65044;DHT22;51617;48.158;16.464;2023-11-18T00:05:40;7.40;92.80
65044;DHT22;51617;48.158;16.464;2023-11-18T00:08:06;7.40;93.00
65044;DHT22;51617;48.158;16.464;2023-11-18T00:10:32;7.40;93.10
65044;DHT22;51617;48.158;16.464;2023-11-18T00:12:57;7.40;92.90
65044;DHT22;51617;48.158;16.464;2023-11-18T00:15:23;7.40;93.10
65044;DHT22;51617;48.158;16.464;2023-11-18T00:17:48;7.30;93.10
65044;DHT22;51617;48.158;16.464;2023-11-18T00:20:14;7.30;93.00
65044;DHT22;51617;48.158;16.464;2023-11-18T00:22:41;7.40;93.40
65044;DHT22;51617;48.158;16.464;2023-11-18T00:25:08;7.40;93.00
65044;DHT22;51617;48.158;16.464;2023-11-18T00:27:34;7.40;92.90
65044;DHT22;51617;48.158;16.464;2023-11-18T00:30:03;7.40;92.80
65044;DHT22;51617;48.158;16.464;2023-11-18T00:32:31;7.40;92.80
65044;DHT22;51617;48.158;16.464;2023-11-18T00:34:57;7.40;92.90
65044;DHT22;51617;48.158;16.464;2023-11-18T00:37:23;7.40;92.60
65044;DHT22;51617;48.158;16.464;2023-11-18T00:39:49;7.40;92.80
65044;DHT22;51617;48.158;16.464;2023-11-18T00:42:14;7.40;92.60
65044;DHT22;51617;48.158;16.464;2023-11-18T00:44:40;7.50;92.70
65044;DHT22;51617;48.158;16.464;2023-11-18T00:47:06;7.40;92.60
65044;DHT22;51617;48.158;16.464;2023-11-18T00:49:32;7.40;92.70
65044;DHT22;51617;48.158;16.464;2023-11-18T00:51:59;7.40;92.50
65044;DHT22;51617;48.158;16.464;2023-11-18T00:56:52;7.20;96.50
65044;DHT22;51617;48.158;16.464;2023-11-18T00:59:17;7.40;92.40
65044;DHT22;51617;48.158;16.464;2023-11-18T01:01:43;7.40;92.20
65044;DHT22;51617;48.158;16.464;2023-11-18T01:04:09;8.10;96.40
65044;DHT22;51617;48.158;16.464;2023-11-18T01:06:34;7.40;92.30
65044;DHT22;51617;48.158;16.464;2023-11-18T01:09:00;7.40;95.70
65044;DHT22;51617;48.158;16.464;2023-11-18T01:11:26;7.50;96.30
65044;DHT22;51617;48.158;16.464;2023-11-18T01:13:52;7.60;96.70
65044;DHT22;51617;48.158;16.464;2023-11-18T01:16:21;7.40;96.30
65044;DHT22;51617;48.158;16.464;2023-11-18T01:18:47;6.90;95.80
65044;DHT22;51617;48.158;16.464;2023-11-18T01:21:13;7.20;92.30
65044;DHT22;51617;48.158;16.464;2023-11-18T01:23:39;7.30;92.30
65044;DHT22;51617;48.158;16.464;2023-11-18T01:26:10;7.10;96.20
65044;DHT22;51617;48.158;16.464;2023-11-18T01:31:07;7.20;92.40
65044;DHT22;51617;48.158;16.464;2023-11-18T01:33:35;7.10;92.70
65044;DHT22;51617;48.158;16.464;2023-11-18T01:36:06;7.10;92.90
65044;DHT22;51617;48.158;16.464;2023-11-18T01:38:34;7.10;92.80
65044;DHT22;51617;48.158;16.464;2023-11-18T01:41:00;7.00;93.00
65044;DHT22;51617;48.158;16.464;2023-11-18T01:43:26;6.90;93.10
65044;DHT22;51617;48.158;16.464;2023-11-18T01:45:52;7.00;93.10
65044;DHT22;51617;48.158;16.464;2023-11-18T01:48:21;7.00;93.10
65044;DHT22;51617;48.158;16.464;2023-11-18T01:50:48;7.00;93.20
65044;DHT22;51617;48.158;16.464;2023-11-18T01:53:15;6.90;93.30
65044;DHT22;51617;48.158;16.464;2023-11-18T01:55:41;6.90;93.40
65044;DHT22;51617;48.158;16.464;2023-11-18T01:58:07;6.90;93.40
65044;DHT22;51617;48.158;16.464;2023-11-18T02:00:37;6.90;93.50
65044;DHT22;51617;48.158;16.464;2023-11-18T02:03:04;6.90;93.50
65044;DHT22;51617;48.158;16.464;2023-11-18T02:05:31;7.00;93.50
65044;DHT22;51617;48.158;16.464;2023-11-18T02:07:59;6.90;93.40
65044;DHT22;51617;48.158;16.464;2023-11-18T02:10:26;7.00;93.50
65044;DHT22;51617;48.158;16.464;2023-11-18T02:13:06;6.90;93.40
65044;DHT22;51617;48.158;16.464;2023-11-18T02:15:36;7.00;93.50
65044;DHT22;51617;48.158;16.464;2023-11-18T02:18:04;6.90;93.50
65044;DHT22;51617;48.158;16.464;2023-11-18T02:20:31;6.90;93.50
65044;DHT22;51617;48.158;16.464;2023-11-18T02:22:58;6.90;93.40
65044;DHT22;51617;48.158;16.464;2023-11-18T02:25:24;7.00;93.40
65044;DHT22;51617;48.158;16.464;2023-11-18T02:27:54;6.90;93.40
65044;DHT22;51617;48.158;16.464;2023-11-18T02:30:19;6.90;93.40
65044;DHT22;51617;48.158;16.464;2023-11-18T02:33:08;6.90;93.50
65044;DHT22;51617;48.158;16.464;2023-11-18T02:35:49;6.90;93.30
65044;DHT22;51617;48.158;16.464;2023-11-18T02:38:19;6.90;93.50
65044;DHT22;51617;48.158;16.464;2023-11-18T02:40:49;6.80;93.40
65044;DHT22;51617;48.158;16.464;2023-11-18T02:43:18;6.80;93.50
65044;DHT22;51617;48.158;16.464;2023-11-18T02:45:44;6.70;93.60
65044;DHT22;51617;48.158;16.464;2023-11-18T02:48:12;6.80;93.60
65044;DHT22;51617;48.158;16.464;2023-11-18T02:50:40;6.70;93.60
65044;DHT22;51617;48.158;16.464;2023-11-18T02:53:08;6.70;93.50
65044;DHT22;51617;48.158;16.464;2023-11-18T02:55:35;6.70;93.60
65044;DHT22;51617;48.158;16.464;2023-11-18T02:58:01;6.70;93.70
65044;DHT22;51617;48.158;16.464;2023-11-18T03:00:27;6.70;93.70
65044;DHT22;51617;48.158;16.464;2023-11-18T03:02:54;6.60;93.40
65044;DHT22;51617;48.158;16.464;2023-11-18T03:05:20;6.80;93.40
65044;DHT22;51617;48.158;16.464;2023-11-18T03:07:47;6.80;93.20
65044;DHT22;51617;48.158;16.464;2023-11-18T03:10:18;6.90;93.00
65044;DHT22;51617;48.158;16.464;2023-11-18T03:12:51;6.90;93.20
65044;DHT22;51617;48.158;16.464;2023-11-18T03:15:21;6.90;93.20
65044;DHT22;51617;48.158;16.464;2023-11-18T03:17:48;6.90;93.00
65044;DHT22;51617;48.158;16.464;2023-11-18T03:20:16;6.90;93.10
65044;DHT22;51617;48.158;16.464;2023-11-18T03:22:49;7.00;93.00
65044;DHT22;51617;48.158;16.464;2023-11-18T03:25:18;6.90;92.80
65044;DHT22;51617;48.158;16.464;2023-11-18T03:27:47;7.00;92.80
65044;DHT22;51617;48.158;16.464;2023-11-18T03:30:13;7.00;92.70
65044;DHT22;51617;48.158;16.464;2023-11-18T03:32:39;7.00;92.70
65044;DHT22;51617;48.158;16.464;2023-11-18T03:35:06;7.00;92.60
65044;DHT22;51617;48.158;16.464;2023-11-18T03:37:37;7.10;92.60
65044;DHT22;51617;48.158;16.464;2023-11-18T03:40:10;7.10;92.50
65044;DHT22;51617;48.158;16.464;2023-11-18T03:42:37;7.10;92.60
65044;DHT22;51617;48.158;16.464;2023-11-18T03:45:03;7.10;92.70
65044;DHT22;51617;48.158;16.464;2023-11-18T03:47:29;7.10;92.40
65044;DHT22;51617;48.158;16.464;2023-11-18T03:49:57;7.10;92.30
65044;DHT22;51617;48.158;16.464;2023-11-18T03:52:23;7.20;92.10
65044;DHT22;51617;48.158;16.464;2023-11-18T03:54:48;7.20;92.20
65044;DHT22;51617;48.158;16.464;2023-11-18T03:57:14;7.20;92.20
65044;DHT22;51617;48.158;16.464;2023-11-18T03:59:40;7.20;92.20
65044;DHT22;51617;48.158;16.464;2023-11-18T04:02:07;7.20;92.30
65044;DHT22;51617;48.158;16.464;2023-11-18T04:04:32;7.20;92.30
65044;DHT22;51617;48.158;16.464;2023-11-18T04:06:58;7.30;92.20
65044;DHT22;51617;48.158;16.464;2023-11-18T04:09:26;7.30;92.30
65044;DHT22;51617;48.158;16.464;2023-11-18T04:11:52;7.30;92.10
65044;DHT22;51617;48.158;16.464;2023-11-18T04:14:18;7.30;92.30
65044;DHT22;51617;48.158;16.464;2023-11-18T04:16:45;7.20;92.20
65044;DHT22;51617;48.158;16.464;2023-11-18T04:19:11;7.20;92.20
65044;DHT22;51617;48.158;16.464;2023-11-18T04:21:37;7.20;92.30
65044;DHT22;51617;48.158;16.464;2023-11-18T04:24:03;7.20;92.40
65044;DHT22;51617;48.158;16.464;2023-11-18T04:26:31;7.20;92.40
65044;DHT22;51617;48.158;16.464;2023-11-18T04:28:57;7.20;92.40
65044;DHT22;51617;48.158;16.464;2023-11-18T04:31:23;7.20;92.20
65044;DHT22;51617;48.158;16.464;2023-11-18T04:33:48;7.20;92.40
65044;DHT22;51617;48.158;16.464;2023-11-18T04:36:14;7.20;92.10
65044;DHT22;51617;48.158;16.464;2023-11-18T04:38:41;7.20;92.20
65044;DHT22;51617;48.158;16.464;2023-11-18T04:41:07;7.20;92.50
65044;DHT22;51617;48.158;16.464;2023-11-18T04:43:33;7.20;92.20
65044;DHT22;51617;48.158;16.464;2023-11-18T04:45:59;7.20;92.30
65044;DHT22;51617;48.158;16.464;2023-11-18T04:48:25;7.20;92.30
65044;DHT22;51617;48.158;16.464;2023-11-18T04:50:50;7.20;92.40
65044;DHT22;51617;48.158;16.464;2023-11-18T04:53:16;7.30;92.40
65044;DHT22;51617;48.158;16.464;2023-11-18T04:55:42;7.20;92.50
65044;DHT22;51617;48.158;16.464;2023-11-18T04:58:08;7.20;92.60
65044;DHT22;51617;48.158;16.464;2023-11-18T05:00:38;7.10;92.60
65044;DHT22;51617;48.158;16.464;2023-11-18T05:03:04;7.20;92.60
65044;DHT22;51617;48.158;16.464;2023-11-18T05:05:31;7.20;92.60
65044;DHT22;51617;48.158;16.464;2023-11-18T05:07:57;7.20;92.60
65044;DHT22;51617;48.158;16.464;2023-11-18T05:10:23;7.20;92.50
65044;DHT22;51617;48.158;16.464;2023-11-18T05:12:49;7.30;92.60
65044;DHT22;51617;48.158;16.464;2023-11-18T05:15:21;7.20;92.70
65044;DHT22;51617;48.158;16.464;2023-11-18T05:17:53;7.10;92.70
65044;DHT22;51617;48.158;16.464;2023-11-18T05:20:19;7.10;92.70
65044;DHT22;51617;48.158;16.464;2023-11-18T05:22:45;7.10;93.00
65044;DHT22;51617;48.158;16.464;2023-11-18T05:25:11;7.10;93.10
65044;DHT22;51617;48.158;16.464;2023-11-18T05:27:37;7.00;93.30
65044;DHT22;51617;48.158;16.464;2023-11-18T05:30:08;7.10;93.30
65044;DHT22;51617;48.158;16.464;2023-11-18T05:32:34;7.00;93.20
65044;DHT22;51617;48.158;16.464;2023-11-18T05:35:00;7.00;93.30
65044;DHT22;51617;48.158;16.464;2023-11-18T05:37:26;7.00;93.30
65044;DHT22;51617;48.158;16.464;2023-11-18T05:39:55;7.00;93.50
65044;DHT22;51617;48.158;16.464;2023-11-18T05:42:40;7.10;93.40
65044;DHT22;51617;48.158;16.464;2023-11-18T05:45:09;7.00;93.50
65044;DHT22;51617;48.158;16.464;2023-11-18T05:47:42;7.00;93.50
65044;DHT22;51617;48.158;16.464;2023-11-18T05:50:08;7.00;93.60
65044;DHT22;51617;48.158;16.464;2023-11-18T05:52:35;7.00;93.70
65044;DHT22;51617;48.158;16.464;2023-11-18T05:55:00;7.00;93.70
65044;DHT22;51617;48.158;16.464;2023-11-18T05:57:26;7.00;93.70
65044;DHT22;51617;48.158;16.464;2023-11-18T05:59:52;6.90;93.80
65044;DHT22;51617;48.158;16.464;2023-11-18T06:02:19;6.90;93.90
65044;DHT22;51617;48.158;16.464;2023-11-18T06:04:45;7.00;93.90
65044;DHT22;51617;48.158;16.464;2023-11-18T06:07:11;7.00;93.50
65044;DHT22;51617;48.158;16.464;2023-11-18T06:09:39;7.00;93.60
65044;DHT22;51617;48.158;16.464;2023-11-18T06:12:07;7.00;93.60
65044;DHT22;51617;48.158;16.464;2023-11-18T06:14:34;7.00;93.50
65044;DHT22;51617;48.158;16.464;2023-11-18T06:16:59;7.00;93.70
65044;DHT22;51617;48.158;16.464;2023-11-18T06:19:25;7.00;93.70
65044;DHT22;51617;48.158;16.464;2023-11-18T06:21:51;7.00;93.60
65044;DHT22;51617;48.158;16.464;2023-11-18T06:24:17;7.00;93.70
65044;DHT22;51617;48.158;16.464;2023-11-18T06:26:44;6.90;93.50
65044;DHT22;51617;48.158;16.464;2023-11-18T06:29:10;7.00;93.60
65044;DHT22;51617;48.158;16.464;2023-11-18T06:31:35;7.00;93.70
65044;DHT22;51617;48.158;16.464;2023-11-18T06:34:01;7.00;93.80
65044;DHT22;51617;48.158;16.464;2023-11-18T06:36:28;6.90;93.60
65044;DHT22;51617;48.158;16.464;2023-11-18T06:38:56;6.90;93.90
65044;DHT22;51617;48.158;16.464;2023-11-18T06:41:23;7.00;93.80
65044;DHT22;51617;48.158;16.464;2023-11-18T06:43:49;7.10;93.80
65044;DHT22;51617;48.158;16.464;2023-11-18T06:46:29;7.00;93.80
65044;DHT22;51617;48.158;16.464;2023-11-18T06:49:00;7.10;93.60
65044;DHT22;51617;48.158;16.464;2023-11-18T06:51:30;7.10;93.70
65044;DHT22;51617;48.158;16.464;2023-11-18T06:53:57;7.10;93.90
65044;DHT22;51617;48.158;16.464;2023-11-18T06:56:27;7.10;93.80
65044;DHT22;51617;48.158;16.464;2023-11-18T06:58:53;7.10;94.00
65044;DHT22;51617;48.158;16.464;2023-11-18T07:01:19;7.20;93.70
65044;DHT22;51617;48.158;16.464;2023-11-18T07:03:46;7.20;93.70
65044;DHT22;51617;48.158;16.464;2023-11-18T07:06:17;7.30;93.50
65044;DHT22;51617;48.158;16.464;2023-11-18T07:08:48;7.20;93.50
65044;DHT22;51617;48.158;16.464;2023-11-18T07:11:15;7.30;93.80
65044;DHT22;51617;48.158;16.464;2023-11-18T07:13:40;7.30;93.50
65044;DHT22;51617;48.158;16.464;2023-11-18T07:16:07;7.40;93.60
65044;DHT22;51617;48.158;16.464;2023-11-18T07:18:35;7.40;93.40
65044;DHT22;51617;48.158;16.464;2023-11-18T07:21:01;7.40;93.50
65044;DHT22;51617;48.158;16.464;2023-11-18T07:23:28;7.40;93.40
65044;DHT22;51617;48.158;16.464;2023-11-18T07:25:54;7.40;93.50
65044;DHT22;51617;48.158;16.464;2023-11-18T07:28:20;7.40;93.40
65044;DHT22;51617;48.158;16.464;2023-11-18T07:30:45;7.40;93.40
65044;DHT22;51617;48.158;16.464;2023-11-18T07:33:16;7.40;93.30
65044;DHT22;51617;48.158;16.464;2023-11-18T07:35:43;7.40;93.20
65044;DHT22;51617;48.158;16.464;2023-11-18T07:38:09;7.40;93.00
65044;DHT22;51617;48.158;16.464;2023-11-18T07:40:36;7.40;93.20
65044;DHT22;51617;48.158;16.464;2023-11-18T07:43:03;7.50;92.90
65044;DHT22;51617;48.158;16.464;2023-11-18T07:45:34;7.50;92.60
65044;DHT22;51617;48.158;16.464;2023-11-18T07:48:03;7.50;93.00
65044;DHT22;51617;48.158;16.464;2023-11-18T07:50:40;7.50;92.60
65044;DHT22;51617;48.158;16.464;2023-11-18T07:53:07;7.50;92.70
65044;DHT22;51617;48.158;16.464;2023-11-18T07:55:33;7.50;92.60
65044;DHT22;51617;48.158;16.464;2023-11-18T07:58:03;7.50;92.40
65044;DHT22;51617;48.158;16.464;2023-11-18T08:00:29;7.50;92.50
65044;DHT22;51617;48.158;16.464;2023-11-18T08:02:58;7.60;92.60
65044;DHT22;51617;48.158;16.464;2023-11-18T08:05:26;7.70;92.40
65044;DHT22;51617;48.158;16.464;2023-11-18T08:07:53;7.80;92.40
65044;DHT22;51617;48.158;16.464;2023-11-18T08:10:19;7.80;92.30
65044;DHT22;51617;48.158;16.464;2023-11-18T08:12:45;7.80;92.50
65044;DHT22;51617;48.158;16.464;2023-11-18T08:15:12;7.80;92.70
65044;DHT22;51617;48.158;16.464;2023-11-18T08:17:39;7.80;92.60
65044;DHT22;51617;48.158;16.464;2023-11-18T08:20:05;7.80;92.60
65044;DHT22;51617;48.158;16.464;2023-11-18T08:22:42;7.80;92.70
65044;DHT22;51617;48.158;16.464;2023-11-18T08:25:12;7.80;93.00
65044;DHT22;51617;48.158;16.464;2023-11-18T08:27:39;7.70;92.40
65044;DHT22;51617;48.158;16.464;2023-11-18T08:30:06;7.80;92.60
65044;DHT22;51617;48.158;16.464;2023-11-18T08:32:37;7.80;92.50
65044;DHT22;51617;48.158;16.464;2023-11-18T08:35:08;7.80;92.70
65044;DHT22;51617;48.158;16.464;2023-11-18T08:37:41;7.80;92.40
65044;DHT22;51617;48.158;16.464;2023-11-18T08:40:13;7.80;92.70
65044;DHT22;51617;48.158;16.464;2023-11-18T08:42:51;7.80;92.60
65044;DHT22;51617;48.158;16.464;2023-11-18T08:45:18;7.80;92.70
65044;DHT22;51617;48.158;16.464;2023-11-18T08:47:48;7.90;92.70
65044;DHT22;51617;48.158;16.464;2023-11-18T08:50:15;7.90;92.50
65044;DHT22;51617;48.158;16.464;2023-11-18T08:52:45;8.00;92.00
65044;DHT22;51617;48.158;16.464;2023-11-18T08:55:15;8.00;92.20
65044;DHT22;51617;48.158;16.464;2023-11-18T08:57:46;8.00;92.10
65044;DHT22;51617;48.158;16.464;2023-11-18T09:00:28;8.00;92.00
65044;DHT22;51617;48.158;16.464;2023-11-18T09:03:17;8.00;92.20
65044;DHT22;51617;48.158;16.464;2023-11-18T09:05:49;8.00;92.40
65044;DHT22;51617;48.158;16.464;2023-11-18T09:08:25;8.20;92.60
65044;DHT22;51617;48.158;16.464;2023-11-18T09:10:53;8.20;92.50
65044;DHT22;51617;48.158;16.464;2023-11-18T09:13:23;8.20;92.80
65044;DHT22;51617;48.158;16.464;2023-11-18T09:15:58;8.30;92.50
65044;DHT22;51617;48.158;16.464;2023-11-18T09:18:26;8.30;92.50
65044;DHT22;51617;48.158;16.464;2023-11-18T09:20:53;8.30;92.60
65044;DHT22;51617;48.158;16.464;2023-11-18T09:23:26;8.30;92.30
65044;DHT22;51617;48.158;16.464;2023-11-18T09:25:53;8.30;92.40
65044;DHT22;51617;48.158;16.464;2023-11-18T09:28:20;8.20;92.60
65044;DHT22;51617;48.158;16.464;2023-11-18T09:30:46;8.30;91.90
65044;DHT22;51617;48.158;16.464;2023-11-18T09:33:17;8.40;92.20
65044;DHT22;51617;48.158;16.464;2023-11-18T09:36:12;8.30;92.60
65044;DHT22;51617;48.158;16.464;2023-11-18T09:38:39;8.30;92.20
65044;DHT22;51617;48.158;16.464;2023-11-18T09:41:09;8.30;92.60
65044;DHT22;51617;48.158;16.464;2023-11-18T09:43:39;8.20;92.30
65044;DHT22;51617;48.158;16.464;2023-11-18T09:46:17;8.10;92.50
65044;DHT22;51617;48.158;16.464;2023-11-18T09:51:14;8.30;92.80
65044;DHT22;51617;48.158;16.464;2023-11-18T09:53:45;8.50;92.90
65044;DHT22;51617;48.158;16.464;2023-11-18T09:56:21;8.40;92.20
65044;DHT22;51617;48.158;16.464;2023-11-18T09:59:10;8.30;92.50
65044;DHT22;51617;48.158;16.464;2023-11-18T10:01:42;8.20;92.80
65044;DHT22;51617;48.158;16.464;2023-11-18T10:04:13;8.10;92.70
65044;DHT22;51617;48.158;16.464;2023-11-18T10:06:39;8.10;92.80
65044;DHT22;51617;48.158;16.464;2023-11-18T10:09:10;8.10;93.00
65044;DHT22;51617;48.158;16.464;2023-11-18T10:11:47;8.20;93.10
65044;DHT22;51617;48.158;16.464;2023-11-18T10:14:16;8.20;93.00
65044;DHT22;51617;48.158;16.464;2023-11-18T10:16:45;8.10;92.60
65044;DHT22;51617;48.158;16.464;2023-11-18T10:19:13;8.10;93.20
65044;DHT22;51617;48.158;16.464;2023-11-18T10:21:39;8.10;93.30
65044;DHT22;51617;48.158;16.464;2023-11-18T10:24:09;8.10;93.10
65044;DHT22;51617;48.158;16.464;2023-11-18T10:26:54;8.00;93.10
65044;DHT22;51617;48.158;16.464;2023-11-18T10:29:23;8.10;93.60
65044;DHT22;51617;48.158;16.464;2023-11-18T10:31:49;8.10;93.40
65044;DHT22;51617;48.158;16.464;2023-11-18T10:34:19;8.10;93.50
65044;DHT22;51617;48.158;16.464;2023-11-18T10:37:02;8.20;93.80
65044;DHT22;51617;48.158;16.464;2023-11-18T10:39:32;8.30;94.00
65044;DHT22;51617;48.158;16.464;2023-11-18T10:42:01;8.20;93.80
65044;DHT22;51617;48.158;16.464;2023-11-18T10:44:28;8.20;93.80
65044;DHT22;51617;48.158;16.464;2023-11-18T10:46:55;8.30;93.40
65044;DHT22;51617;48.158;16.464;2023-11-18T10:49:24;8.20;93.20
65044;DHT22;51617;48.158;16.464;2023-11-18T10:51:54;8.10;93.60
65044;DHT22;51617;48.158;16.464;2023-11-18T10:54:21;8.10;93.30
65044;DHT22;51617;48.158;16.464;2023-11-18T10:56:48;8.10;93.60
65044;DHT22;51617;48.158;16.464;2023-11-18T10:59:14;8.00;93.40
65044;DHT22;51617;48.158;16.464;2023-11-18T11:01:44;8.00;93.80
65044;DHT22;51617;48.158;16.464;2023-11-18T11:04:13;7.90;93.50
65044;DHT22;51617;48.158;16.464;2023-11-18T11:06:44;7.90;93.50
65044;DHT22;51617;48.158;16.464;2023-11-18T11:09:20;8.00;93.60
65044;DHT22;51617;48.158;16.464;2023-11-18T11:11:53;8.00;93.80
65044;DHT22;51617;48.158;16.464;2023-11-18T11:14:23;8.10;93.70
65044;DHT22;51617;48.158;16.464;2023-11-18T11:17:03;8.10;93.10
65044;DHT22;51617;48.158;16.464;2023-11-18T11:20:08;8.10;93.40
65044;DHT22;51617;48.158;16.464;2023-11-18T11:25:28;8.10;93.30
65044;DHT22;51617;48.158;16.464;2023-11-18T11:28:08;8.10;93.60
65044;DHT22;51617;48.158;16.464;2023-11-18T11:30:50;8.10;93.70
65044;DHT22;51617;48.158;16.464;2023-11-18T11:36:09;8.10;93.70
65044;DHT22;51617;48.158;16.464;2023-11-18T11:38:38;8.40;93.80
65044;DHT22;51617;48.158;16.464;2023-11-18T11:41:07;8.40;93.20
65044;DHT22;51617;48.158;16.464;2023-11-18T11:43:35;8.50;93.40
65044;DHT22;51617;48.158;16.464;2023-11-18T11:46:04;8.40;93.60
65044;DHT22;51617;48.158;16.464;2023-11-18T11:48:37;8.40;93.20
65044;DHT22;51617;48.158;16.464;2023-11-18T11:53:55;8.30;93.40
65044;DHT22;51617;48.158;16.464;2023-11-18T11:56:37;8.20;93.50
65044;DHT22;51617;48.158;16.464;2023-11-18T11:59:03;8.20;93.50
65044;DHT22;51617;48.158;16.464;2023-11-18T12:01:36;8.20;94.10
65044;DHT22;51617;48.158;16.464;2023-11-18T12:04:08;8.30;94.00
65044;DHT22;51617;48.158;16.464;2023-11-18T12:06:42;8.20;93.40
65044;DHT22;51617;48.158;16.464;2023-11-18T12:09:10;8.20;93.70
65044;DHT22;51617;48.158;16.464;2023-11-18T12:11:36;8.10;93.60
65044;DHT22;51617;48.158;16.464;2023-11-18T12:14:07;8.20;93.60
65044;DHT22;51617;48.158;16.464;2023-11-18T12:17:04;8.30;93.90
65044;DHT22;51617;48.158;16.464;2023-11-18T12:19:36;8.30;93.80
65044;DHT22;51617;48.158;16.464;2023-11-18T12:22:02;8.30;93.50
65044;DHT22;51617;48.158;16.464;2023-11-18T12:24:38;8.30;93.30
65044;DHT22;51617;48.158;16.464;2023-11-18T12:27:05;8.30;93.60
65044;DHT22;51617;48.158;16.464;2023-11-18T12:29:41;8.30;93.60
65044;DHT22;51617;48.158;16.464;2023-11-18T12:32:09;8.30;93.80
65044;DHT22;51617;48.158;16.464;2023-11-18T12:34:53;8.30;93.50
65044;DHT22;51617;48.158;16.464;2023-11-18T12:48:31;8.30;93.60
65044;DHT22;51617;48.158;16.464;2023-11-18T12:50:58;8.30;93.60
65044;DHT22;51617;48.158;16.464;2023-11-18T12:53:25;8.30;93.30
65044;DHT22;51617;48.158;16.464;2023-11-18T12:55:52;8.40;93.10
65044;DHT22;51617;48.158;16.464;2023-11-18T12:58:18;8.40;93.10
65044;DHT22;51617;48.158;16.464;2023-11-18T13:00:44;8.50;93.20
65044;DHT22;51617;48.158;16.464;2023-11-18T13:03:11;8.50;93.10
65044;DHT22;51617;48.158;16.464;2023-11-18T13:05:41;8.60;92.90
65044;DHT22;51617;48.158;16.464;2023-11-18T13:08:06;8.60;92.70
65044;DHT22;51617;48.158;16.464;2023-11-18T13:10:32;8.60;92.50
65044;DHT22;51617;48.158;16.464;2023-11-18T13:12:58;8.60;92.50
65044;DHT22;51617;48.158;16.464;2023-11-18T13:15:25;8.60;92.10
65044;DHT22;51617;48.158;16.464;2023-11-18T13:18:09;8.60;92.20
65044;DHT22;51617;48.158;16.464;2023-11-18T13:20:36;8.60;92.20
65044;DHT22;51617;48.158;16.464;2023-11-18T13:23:03;8.50;92.30
65044;DHT22;51617;48.158;16.464;2023-11-18T13:25:35;8.50;92.30
65044;DHT22;51617;48.158;16.464;2023-11-18T13:28:04;8.50;92.00
65044;DHT22;51617;48.158;16.464;2023-11-18T13:30:30;8.50;91.90
65044;DHT22;51617;48.158;16.464;2023-11-18T13:32:56;8.60;91.90
65044;DHT22;51617;48.158;16.464;2023-11-18T13:35:22;8.50;91.90
65044;DHT22;51617;48.158;16.464;2023-11-18T13:37:50;8.40;91.90
65044;DHT22;51617;48.158;16.464;2023-11-18T13:40:16;8.50;92.00
65044;DHT22;51617;48.158;16.464;2023-11-18T13:42:44;8.40;91.90
65044;DHT22;51617;48.158;16.464;2023-11-18T13:45:13;8.50;91.70
65044;DHT22;51617;48.158;16.464;2023-11-18T13:47:51;8.50;91.80
65044;DHT22;51617;48.158;16.464;2023-11-18T13:50:20;8.50;91.90
65044;DHT22;51617;48.158;16.464;2023-11-18T13:52:46;8.50;91.40
65044;DHT22;51617;48.158;16.464;2023-11-18T13:55:16;8.50;91.10
65044;DHT22;51617;48.158;16.464;2023-11-18T13:57:53;8.50;91.10
65044;DHT22;51617;48.158;16.464;2023-11-18T14:00:22;8.50;91.10
65044;DHT22;51617;48.158;16.464;2023-11-18T14:02:48;8.50;91.00
65044;DHT22;51617;48.158;16.464;2023-11-18T14:05:15;8.50;91.20
65044;DHT22;51617;48.158;16.464;2023-11-18T14:07:47;8.40;91.20
65044;DHT22;51617;48.158;16.464;2023-11-18T14:10:13;8.50;91.30
65044;DHT22;51617;48.158;16.464;2023-11-18T14:12:40;8.50;91.30
65044;DHT22;51617;48.158;16.464;2023-11-18T14:15:06;8.40;91.20
65044;DHT22;51617;48.158;16.464;2023-11-18T14:17:35;8.40;91.20
65044;DHT22;51617;48.158;16.464;2023-11-18T14:20:02;8.40;91.30
65044;DHT22;51617;48.158;16.464;2023-11-18T14:22:27;8.30;91.20
65044;DHT22;51617;48.158;16.464;2023-11-18T14:24:53;8.30;91.30
65044;DHT22;51617;48.158;16.464;2023-11-18T14:27:19;8.30;91.70
65044;DHT22;51617;48.158;16.464;2023-11-18T14:29:44;8.30;91.30
65044;DHT22;51617;48.158;16.464;2023-11-18T14:32:11;8.30;91.10
65044;DHT22;51617;48.158;16.464;2023-11-18T14:34:39;8.30;91.10
65044;DHT22;51617;48.158;16.464;2023-11-18T14:37:07;8.30;90.80
65044;DHT22;51617;48.158;16.464;2023-11-18T14:39:33;8.30;91.00
65044;DHT22;51617;48.158;16.464;2023-11-18T14:42:01;8.30;90.80
65044;DHT22;51617;48.158;16.464;2023-11-18T14:44:27;8.30;90.70
65044;DHT22;51617;48.158;16.464;2023-11-18T14:46:52;8.20;90.20
65044;DHT22;51617;48.158;16.464;2023-11-18T14:49:20;8.20;90.40
65044;DHT22;51617;48.158;16.464;2023-11-18T14:51:45;8.30;90.30
65044;DHT22;51617;48.158;16.464;2023-11-18T14:54:11;8.20;90.40
65044;DHT22;51617;48.158;16.464;2023-11-18T14:56:37;8.20;90.50
65044;DHT22;51617;48.158;16.464;2023-11-18T14:59:03;8.20;90.90
65044;DHT22;51617;48.158;16.464;2023-11-18T15:01:30;8.20;90.50
65044;DHT22;51617;48.158;16.464;2023-11-18T15:03:56;8.20;90.60
65044;DHT22;51617;48.158;16.464;2023-11-18T15:06:26;8.20;90.50
65044;DHT22;51617;48.158;16.464;2023-11-18T15:08:51;8.20;90.60
65044;DHT22;51617;48.158;16.464;2023-11-18T15:11:22;8.20;90.50
65044;DHT22;51617;48.158;16.464;2023-11-18T15:13:49;8.20;90.40
65044;DHT22;51617;48.158;16.464;2023-11-18T15:16:15;8.10;90.60
65044;DHT22;51617;48.158;16.464;2023-11-18T15:18:44;8.10;90.60
65044;DHT22;51617;48.158;16.464;2023-11-18T15:21:12;8.10;90.70
65044;DHT22;51617;48.158;16.464;2023-11-18T15:23:40;8.00;90.50
65044;DHT22;51617;48.158;16.464;2023-11-18T15:26:07;8.00;90.60
65044;DHT22;51617;48.158;16.464;2023-11-18T15:28:34;8.10;90.80
65044;DHT22;51617;48.158;16.464;2023-11-18T15:31:00;8.10;90.50
65044;DHT22;51617;48.158;16.464;2023-11-18T15:33:28;8.10;90.40
65044;DHT22;51617;48.158;16.464;2023-11-18T15:35:54;8.00;90.20
65044;DHT22;51617;48.158;16.464;2023-11-18T15:38:19;8.10;90.20
65044;DHT22;51617;48.158;16.464;2023-11-18T15:40:47;8.10;90.20
65044;DHT22;51617;48.158;16.464;2023-11-18T15:43:13;8.10;90.00
65044;DHT22;51617;48.158;16.464;2023-11-18T15:45:38;8.10;90.10
65044;DHT22;51617;48.158;16.464;2023-11-18T15:48:05;8.00;90.00
65044;DHT22;51617;48.158;16.464;2023-11-18T15:50:32;8.00;89.70
65044;DHT22;51617;48.158;16.464;2023-11-18T15:53:03;8.00;89.80
65044;DHT22;51617;48.158;16.464;2023-11-18T15:55:28;7.90;88.40
65044;DHT22;51617;48.158;16.464;2023-11-18T15:57:54;8.00;88.60
65044;DHT22;51617;48.158;16.464;2023-11-18T16:00:25;8.00;88.80
65044;DHT22;51617;48.158;16.464;2023-11-18T16:02:52;8.10;89.30
65044;DHT22;51617;48.158;16.464;2023-11-18T16:05:20;8.10;89.10